createdAt,value
2016-11-02T00:00:44.837Z,1012.02
2016-11-02T00:01:44.822Z,1012.01
2016-11-02T00:02:44.807Z,1012
2016-11-02T00:03:44.805Z,1012.05
2016-11-02T00:04:44.770Z,1012
2016-11-02T00:05:44.751Z,1012.04
2016-11-02T00:06:44.737Z,1012.04
2016-11-02T00:07:44.719Z,1012.01
2016-11-02T00:08:44.702Z,1012.02
2016-11-02T00:09:44.686Z,1012.03
2016-11-02T00:10:44.706Z,1012.04
2016-11-02T00:11:44.665Z,1011.96
2016-11-02T00:12:44.648Z,1012.01
2016-11-02T00:13:44.675Z,1011.97
2016-11-02T00:14:44.617Z,1011.98
2016-11-02T00:15:44.586Z,1012
2016-11-02T00:16:44.568Z,1012.07
2016-11-02T00:17:44.553Z,1012
2016-11-02T00:18:44.536Z,1011.96
2016-11-02T00:19:44.517Z,1011.97
2016-11-02T00:20:44.501Z,1011.93
2016-11-02T00:21:44.484Z,1012.01
2016-11-02T00:22:44.472Z,1011.95
2016-11-02T00:23:44.455Z,1011.97
2016-11-02T00:24:44.437Z,1011.95
2016-11-02T00:25:44.418Z,1011.92
2016-11-02T00:26:44.404Z,1011.95
2016-11-02T00:27:44.383Z,1011.93
2016-11-02T00:28:44.366Z,1011.96
2016-11-02T00:29:44.351Z,1011.99
2016-11-02T00:30:44.341Z,1012
2016-11-02T00:31:44.316Z,1012.01
2016-11-02T00:32:44.299Z,1011.95
2016-11-02T00:33:44.282Z,1011.94
2016-11-02T00:34:44.265Z,1011.92
2016-11-02T00:35:44.249Z,1011.96
2016-11-02T00:36:44.233Z,1011.96
2016-11-02T00:37:44.218Z,1011.94
2016-11-02T00:38:44.198Z,1011.91
2016-11-02T00:39:44.182Z,1011.91
2016-11-02T00:40:44.166Z,1011.96
2016-11-02T00:41:44.149Z,1011.91
2016-11-02T00:42:44.131Z,1011.92
2016-11-02T00:43:44.112Z,1011.96
2016-11-02T00:44:44.098Z,1011.93
2016-11-02T00:45:44.081Z,1011.95
2016-11-02T00:46:44.064Z,1011.88
2016-11-02T00:47:44.046Z,1011.9
2016-11-02T00:48:44.028Z,1011.91
2016-11-02T00:49:44.013Z,1011.84
2016-11-02T00:50:43.997Z,1011.87
2016-11-02T00:51:43.978Z,1011.85
2016-11-02T00:52:43.962Z,1011.84
2016-11-02T00:53:43.941Z,1011.86
2016-11-02T00:54:43.927Z,1011.86
2016-11-02T00:55:43.910Z,1011.87
2016-11-02T00:56:43.893Z,1011.83
2016-11-02T00:57:43.875Z,1011.83
2016-11-02T00:58:43.860Z,1011.87
2016-11-02T00:59:43.842Z,1011.86
2016-11-02T01:00:43.824Z,1011.85
2016-11-02T01:01:43.807Z,1011.87
2016-11-02T01:02:43.796Z,1011.85
2016-11-02T01:03:43.776Z,1011.83
2016-11-02T01:04:43.757Z,1011.82
2016-11-02T01:05:43.739Z,1011.79
2016-11-02T01:06:43.722Z,1011.86
2016-11-02T01:07:43.704Z,1011.88
2016-11-02T01:08:43.687Z,1011.87
2016-11-02T01:09:43.671Z,1011.86
2016-11-02T01:10:43.656Z,1011.92
2016-11-02T01:11:43.636Z,1011.89
2016-11-02T01:12:43.619Z,1011.91
2016-11-02T01:13:43.603Z,1011.94
2016-11-02T01:14:43.584Z,1011.94
2016-11-02T01:15:43.570Z,1011.93
2016-11-02T01:16:43.551Z,1011.97
2016-11-02T01:17:43.535Z,1011.98
2016-11-02T01:18:43.516Z,1012
2016-11-02T01:19:43.500Z,1011.93
2016-11-02T01:20:43.482Z,1012
2016-11-02T01:21:43.466Z,1011.91
2016-11-02T01:22:43.449Z,1011.93
2016-11-02T01:23:43.438Z,1011.94
2016-11-02T01:24:43.417Z,1011.91
2016-11-02T01:25:43.400Z,1011.89
2016-11-02T01:26:43.387Z,1011.91
2016-11-02T01:27:43.366Z,1011.85
2016-11-02T01:28:43.352Z,1011.91
2016-11-02T01:29:43.332Z,1011.86
2016-11-02T01:30:43.316Z,1011.89
2016-11-02T01:31:43.299Z,1011.87
2016-11-02T01:32:43.284Z,1011.85
2016-11-02T01:33:43.269Z,1011.87
2016-11-02T01:34:43.248Z,1011.8
2016-11-02T01:35:43.231Z,1011.83
2016-11-02T01:36:43.215Z,1011.83
2016-11-02T01:37:43.202Z,1011.87
2016-11-02T01:38:43.183Z,1011.8
2016-11-02T01:39:43.165Z,1011.84
2016-11-02T01:40:43.146Z,1011.8
2016-11-02T01:41:43.131Z,1011.84
2016-11-02T01:42:43.114Z,1011.8
2016-11-02T01:43:43.096Z,1011.78
2016-11-02T01:44:43.082Z,1011.74
2016-11-02T01:45:43.064Z,1011.75
2016-11-02T01:46:43.049Z,1011.77
2016-11-02T01:47:43.030Z,1011.78
2016-11-02T01:48:43.014Z,1011.74
2016-11-02T01:49:42.998Z,1011.77
2016-11-02T01:50:42.981Z,1011.74
2016-11-02T01:51:42.963Z,1011.74
2016-11-02T01:52:42.946Z,1011.72
2016-11-02T01:53:42.931Z,1011.72
2016-11-02T01:54:42.913Z,1011.75
2016-11-02T01:55:42.897Z,1011.7
2016-11-02T01:56:42.879Z,1011.76
2016-11-02T01:57:42.862Z,1011.74
2016-11-02T01:58:42.845Z,1011.74
2016-11-02T01:59:42.826Z,1011.73
2016-11-02T02:00:42.813Z,1011.73
2016-11-02T02:01:42.795Z,1011.72
2016-11-02T02:02:42.779Z,1011.71
2016-11-02T02:03:42.762Z,1011.7
2016-11-02T02:04:42.746Z,1011.71
2016-11-02T02:05:42.727Z,1011.68
2016-11-02T02:06:42.713Z,1011.67
2016-11-02T02:07:42.695Z,1011.69
2016-11-02T02:08:42.677Z,1011.66
2016-11-02T02:09:42.660Z,1011.66
2016-11-02T02:10:42.643Z,1011.69
2016-11-02T02:11:42.628Z,1011.69
2016-11-02T02:12:42.615Z,1011.69
2016-11-02T02:13:42.593Z,1011.67
2016-11-02T02:14:42.580Z,1011.67
2016-11-02T02:15:42.559Z,1011.67
2016-11-02T02:16:42.544Z,1011.61
2016-11-02T02:17:42.527Z,1011.64
2016-11-02T02:18:42.510Z,1011.65
2016-11-02T02:19:42.493Z,1011.61
2016-11-02T02:20:42.476Z,1011.58
2016-11-02T02:21:42.463Z,1011.63
2016-11-02T02:22:42.444Z,1011.65
2016-11-02T02:23:42.426Z,1011.59
2016-11-02T02:24:42.409Z,1011.62
2016-11-02T02:25:42.394Z,1011.6
2016-11-02T02:26:42.375Z,1011.57
2016-11-02T02:27:42.358Z,1011.6
2016-11-02T02:28:42.341Z,1011.55
2016-11-02T02:29:42.325Z,1011.53
2016-11-02T02:30:42.308Z,1011.54
2016-11-02T02:31:42.290Z,1011.58
2016-11-02T02:32:42.274Z,1011.53
2016-11-02T02:33:42.257Z,1011.55
2016-11-02T02:34:42.248Z,1011.52
2016-11-02T02:35:42.223Z,1011.48
2016-11-02T02:36:42.207Z,1011.52
2016-11-02T02:37:42.195Z,1011.53
2016-11-02T02:38:42.175Z,1011.49
2016-11-02T02:39:42.157Z,1011.5
2016-11-02T02:40:42.140Z,1011.52
2016-11-02T02:41:42.124Z,1011.49
2016-11-02T02:42:42.105Z,1011.51
2016-11-02T02:43:42.089Z,1011.51
2016-11-02T02:44:42.072Z,1011.5
2016-11-02T02:45:42.055Z,1011.48
2016-11-02T02:46:42.038Z,1011.48
2016-11-02T02:47:42.022Z,1011.48
2016-11-02T02:48:42.008Z,1011.48
2016-11-02T02:49:41.989Z,1011.44
2016-11-02T02:50:41.971Z,1011.46
2016-11-02T02:51:41.957Z,1011.39
2016-11-02T02:52:41.937Z,1011.44
2016-11-02T02:53:41.920Z,1011.4
2016-11-02T02:54:41.904Z,1011.4
2016-11-02T02:55:41.888Z,1011.44
2016-11-02T02:56:41.870Z,1011.4
2016-11-02T02:57:41.853Z,1011.4
2016-11-02T02:58:41.836Z,1011.4
2016-11-02T02:59:41.819Z,1011.38
2016-11-02T03:00:41.802Z,1011.39
2016-11-02T03:01:41.785Z,1011.43
2016-11-02T03:02:41.769Z,1011.38
2016-11-02T03:03:41.753Z,1011.39
2016-11-02T03:04:41.735Z,1011.4
2016-11-02T03:05:41.722Z,1011.4
2016-11-02T03:06:41.701Z,1011.39
2016-11-02T03:07:41.684Z,1011.41
2016-11-02T03:08:41.667Z,1011.38
2016-11-02T03:09:41.651Z,1011.36
2016-11-02T03:10:41.634Z,1011.37
2016-11-02T03:11:41.617Z,1011.35
2016-11-02T03:12:41.603Z,1011.37
2016-11-02T03:13:41.583Z,1011.39
2016-11-02T03:14:41.568Z,1011.41
2016-11-02T03:15:41.549Z,1011.37
2016-11-02T03:16:41.533Z,1011.34
2016-11-02T03:17:41.515Z,1011.34
2016-11-02T03:18:41.501Z,1011.37
2016-11-02T03:19:41.484Z,1011.36
2016-11-02T03:20:41.467Z,1011.35
2016-11-02T03:21:41.449Z,1011.29
2016-11-02T03:22:41.432Z,1011.25
2016-11-02T03:23:41.415Z,1011.25
2016-11-02T03:24:41.398Z,1011.22
2016-11-02T03:25:41.383Z,1011.21
2016-11-02T03:26:41.363Z,1011.2
2016-11-02T03:27:41.348Z,1011.24
2016-11-02T03:28:41.336Z,1011.19
2016-11-02T03:29:41.314Z,1011.21
2016-11-02T03:30:41.297Z,1011.16
2016-11-02T03:31:41.282Z,1011.18
2016-11-02T03:32:41.264Z,1011.17
2016-11-02T03:33:41.246Z,1011.2
2016-11-02T03:34:41.230Z,1011.15
2016-11-02T03:35:41.213Z,1011.09
2016-11-02T03:36:41.196Z,1011.09
2016-11-02T03:37:41.179Z,1011.11
2016-11-02T03:38:41.162Z,1011.12
2016-11-02T03:39:41.147Z,1011.09
2016-11-02T03:40:41.129Z,1011.11
2016-11-02T03:41:41.112Z,1011.1
2016-11-02T03:42:41.097Z,1011.1
2016-11-02T03:43:41.077Z,1011.1
2016-11-02T03:44:41.060Z,1011.04
2016-11-02T03:45:41.042Z,1011.07
2016-11-02T03:46:41.028Z,1011.02
2016-11-02T03:47:41.011Z,1011.09
2016-11-02T03:48:40.994Z,1010.98
2016-11-02T03:49:40.977Z,1010.99
2016-11-02T03:50:40.959Z,1010.92
2016-11-02T03:51:40.942Z,1010.91
2016-11-02T03:52:40.924Z,1010.89
2016-11-02T03:53:40.907Z,1010.97
2016-11-02T03:54:40.892Z,1010.98
2016-11-02T03:55:40.873Z,1010.99
2016-11-02T03:56:40.859Z,1010.96
2016-11-02T03:57:40.840Z,1010.97
2016-11-02T03:58:40.824Z,1010.94
2016-11-02T03:59:40.806Z,1010.96
2016-11-02T04:00:40.789Z,1011
2016-11-02T04:01:40.774Z,1010.95
2016-11-02T04:02:40.755Z,1010.96
2016-11-02T04:03:40.755Z,1010.95
2016-11-02T04:04:40.737Z,1010.94
2016-11-02T04:05:40.719Z,1010.93
2016-11-02T04:06:40.704Z,1010.97
2016-11-02T04:07:40.684Z,1010.92
2016-11-02T04:08:40.666Z,1010.96
2016-11-02T04:09:40.653Z,1010.92
2016-11-02T04:10:40.633Z,1010.92
2016-11-02T04:11:40.619Z,1010.94
2016-11-02T04:12:40.599Z,1010.95
2016-11-02T04:13:40.584Z,1010.95
2016-11-02T04:14:40.568Z,1010.96
2016-11-02T04:15:40.550Z,1011.01
2016-11-02T04:16:40.534Z,1010.96
2016-11-02T04:17:40.513Z,1010.93
2016-11-02T04:18:40.498Z,1010.95
2016-11-02T04:19:40.481Z,1010.96
2016-11-02T04:20:40.465Z,1010.96
2016-11-02T04:21:40.445Z,1010.95
2016-11-02T04:22:40.435Z,1010.98
2016-11-02T04:23:40.426Z,1010.95
2016-11-02T04:24:40.397Z,1010.94
2016-11-02T04:25:40.379Z,1010.95
2016-11-02T04:26:40.364Z,1010.89
2016-11-02T04:27:40.351Z,1010.95
2016-11-02T04:28:40.330Z,1010.92
2016-11-02T04:29:40.313Z,1011
2016-11-02T04:30:40.294Z,1011
2016-11-02T04:31:40.278Z,1011
2016-11-02T04:32:40.259Z,1011.03
2016-11-02T04:33:40.244Z,1011.03
2016-11-02T04:34:40.230Z,1011.05
2016-11-02T04:35:40.195Z,1011.02
2016-11-02T04:36:40.180Z,1010.99
2016-11-02T04:37:40.163Z,1011.02
2016-11-02T04:38:40.146Z,1010.96
2016-11-02T04:39:40.130Z,1011
2016-11-02T04:40:40.111Z,1011.02
2016-11-02T04:41:40.098Z,1011.01
2016-11-02T04:42:40.079Z,1010.99
2016-11-02T04:43:40.059Z,1010.97
2016-11-02T04:44:40.046Z,1010.97
2016-11-02T04:45:40.027Z,1010.97
2016-11-02T04:46:40.009Z,1010.92
2016-11-02T04:47:39.992Z,1010.93
2016-11-02T04:48:39.976Z,1010.93
2016-11-02T04:49:39.960Z,1010.93
2016-11-02T04:50:39.941Z,1010.95
2016-11-02T04:51:39.924Z,1010.89
2016-11-02T04:52:39.908Z,1010.89
2016-11-02T04:53:39.891Z,1010.88
2016-11-02T04:54:39.875Z,1010.84
2016-11-02T04:55:39.856Z,1010.87
2016-11-02T04:56:39.841Z,1010.85
2016-11-02T04:57:39.822Z,1010.83
2016-11-02T04:58:39.811Z,1010.83
2016-11-02T04:59:39.789Z,1010.82
2016-11-02T05:00:39.772Z,1010.79
2016-11-02T05:01:39.755Z,1010.8
2016-11-02T05:02:39.737Z,1010.79
2016-11-02T05:03:39.720Z,1010.76
2016-11-02T05:04:39.703Z,1010.83
2016-11-02T05:05:39.686Z,1010.78
2016-11-02T05:06:39.671Z,1010.78
2016-11-02T05:07:39.657Z,1010.8
2016-11-02T05:08:39.636Z,1010.72
2016-11-02T05:09:39.619Z,1010.73
2016-11-02T05:10:39.602Z,1010.75
2016-11-02T05:11:39.585Z,1010.7
2016-11-02T05:12:39.572Z,1010.72
2016-11-02T05:13:39.550Z,1010.69
2016-11-02T05:14:39.535Z,1010.6
2016-11-02T05:15:39.516Z,1010.66
2016-11-02T05:16:39.500Z,1010.53
2016-11-02T05:17:39.482Z,1010.52
2016-11-02T05:18:39.466Z,1010.5
2016-11-02T05:19:39.449Z,1010.51
2016-11-02T05:20:39.432Z,1010.6
2016-11-02T05:21:39.416Z,1010.57
2016-11-02T05:22:39.399Z,1010.59
2016-11-02T05:23:39.382Z,1010.58
2016-11-02T05:24:39.365Z,1010.59
2016-11-02T05:25:39.352Z,1010.59
2016-11-02T05:26:39.332Z,1010.6
2016-11-02T05:27:39.315Z,1010.61
2016-11-02T05:28:39.298Z,1010.61
2016-11-02T05:29:39.281Z,1010.6
2016-11-02T05:30:39.269Z,1010.64
2016-11-02T05:31:39.247Z,1010.61
2016-11-02T05:32:39.232Z,1010.62
2016-11-02T05:33:39.214Z,1010.62
2016-11-02T05:34:39.197Z,1010.63
2016-11-02T05:35:39.183Z,1010.62
2016-11-02T05:36:39.165Z,1010.63
2016-11-02T05:37:39.147Z,1010.61
2016-11-02T05:38:39.130Z,1010.64
2016-11-02T05:39:39.115Z,1010.63
2016-11-02T05:40:39.097Z,1010.63
2016-11-02T05:41:39.081Z,1010.64
2016-11-02T05:42:39.063Z,1010.59
2016-11-02T05:43:39.046Z,1010.61
2016-11-02T05:44:39.033Z,1010.6
2016-11-02T05:45:39.013Z,1010.6
2016-11-02T05:46:39.000Z,1010.6
2016-11-02T05:47:38.982Z,1010.66
2016-11-02T05:48:38.964Z,1010.61
2016-11-02T05:49:38.946Z,1010.61
2016-11-02T05:50:38.929Z,1010.6
2016-11-02T05:51:38.914Z,1010.67
2016-11-02T05:52:38.897Z,1010.65
2016-11-02T05:53:38.880Z,1010.63
2016-11-02T05:54:38.865Z,1010.7
2016-11-02T05:55:38.850Z,1010.72
2016-11-02T05:56:38.830Z,1010.82
2016-11-02T05:57:38.813Z,1010.86
2016-11-02T05:58:38.798Z,1010.91
2016-11-02T05:59:38.781Z,1010.9
2016-11-02T06:00:38.763Z,1010.95
2016-11-02T06:01:38.748Z,1010.88
2016-11-02T06:02:38.731Z,1010.94
2016-11-02T06:03:38.710Z,1010.96
2016-11-02T06:04:38.700Z,1010.93
2016-11-02T06:05:38.681Z,1010.96
2016-11-02T06:06:38.667Z,1010.95
2016-11-02T06:07:38.647Z,1010.98
2016-11-02T06:08:38.631Z,1011.05
2016-11-02T06:09:38.614Z,1011.07
2016-11-02T06:10:38.597Z,1011.11
2016-11-02T06:11:38.586Z,1011.1
2016-11-02T06:12:38.564Z,1011.1
2016-11-02T06:13:38.549Z,1011.1
2016-11-02T06:14:38.532Z,1011.03
2016-11-02T06:15:38.515Z,1011
2016-11-02T06:16:38.500Z,1010.93
2016-11-02T06:17:38.482Z,1010.94
2016-11-02T06:18:38.465Z,1010.91
2016-11-02T06:19:38.449Z,1010.8
2016-11-02T06:20:38.432Z,1010.63
2016-11-02T06:21:38.412Z,1010.62
2016-11-02T06:22:38.398Z,1010.65
2016-11-02T06:23:38.383Z,1010.63
2016-11-02T06:24:38.365Z,1010.63
2016-11-02T06:25:38.348Z,1010.59
2016-11-02T06:26:38.334Z,1010.59
2016-11-02T06:27:38.317Z,1010.67
2016-11-02T06:28:38.302Z,1010.66
2016-11-02T06:29:38.296Z,1010.67
2016-11-02T06:30:38.268Z,1010.74
2016-11-02T06:31:38.251Z,1010.76
2016-11-02T06:32:38.235Z,1010.75
2016-11-02T06:33:38.218Z,1010.72
2016-11-02T06:34:38.201Z,1010.71
2016-11-02T06:35:38.184Z,1010.74
2016-11-02T06:36:38.167Z,1010.72
2016-11-02T06:37:38.151Z,1010.79
2016-11-02T06:38:38.134Z,1010.82
2016-11-02T06:39:38.117Z,1010.79
2016-11-02T06:40:38.101Z,1010.81
2016-11-02T06:41:38.084Z,1010.79
2016-11-02T06:42:38.069Z,1010.83
2016-11-02T06:43:38.051Z,1010.88
2016-11-02T06:44:38.034Z,1010.92
2016-11-02T06:45:38.019Z,1010.9
2016-11-02T06:46:38.002Z,1010.89
2016-11-02T06:47:37.985Z,1010.84
2016-11-02T06:48:37.973Z,1010.88
2016-11-02T06:49:37.958Z,1010.89
2016-11-02T06:50:37.935Z,1010.93
2016-11-02T06:51:37.920Z,1010.93
2016-11-02T06:52:37.901Z,1010.98
2016-11-02T06:53:37.891Z,1010.95
2016-11-02T06:54:37.870Z,1011
2016-11-02T06:55:37.853Z,1011.04
2016-11-02T06:56:37.838Z,1011.05
2016-11-02T06:57:37.822Z,1011.04
2016-11-02T06:58:37.804Z,1011.13
2016-11-02T06:59:37.788Z,1011.16
2016-11-02T07:00:37.773Z,1011.18
2016-11-02T07:01:37.756Z,1011.18
2016-11-02T07:02:37.740Z,1011.23
2016-11-02T07:03:37.723Z,1011.23
2016-11-02T07:04:37.706Z,1011.2
2016-11-02T07:05:37.691Z,1011.26
2016-11-02T07:06:37.674Z,1011.31
2016-11-02T07:07:37.657Z,1011.34
2016-11-02T07:08:37.641Z,1011.32
2016-11-02T07:09:37.624Z,1011.32
2016-11-02T07:10:37.607Z,1011.35
2016-11-02T07:11:37.591Z,1011.37
2016-11-02T07:12:37.574Z,1011.32
2016-11-02T07:13:37.557Z,1011.32
2016-11-02T07:14:37.544Z,1011.3
2016-11-02T07:15:37.527Z,1011.34
2016-11-02T07:16:37.509Z,1011.29
2016-11-02T07:17:37.494Z,1011.28
2016-11-02T07:18:37.477Z,1011.27
2016-11-02T07:19:37.460Z,1011.27
2016-11-02T07:20:37.443Z,1011.23
2016-11-02T07:21:37.427Z,1011.26
2016-11-02T07:22:37.412Z,1011.29
2016-11-02T07:23:37.395Z,1011.26
2016-11-02T07:24:37.378Z,1011.24
2016-11-02T07:25:37.362Z,1011.26
2016-11-02T07:26:37.346Z,1011.24
2016-11-02T07:27:37.328Z,1011.26
2016-11-02T07:28:37.314Z,1011.33
2016-11-02T07:29:37.298Z,1011.28
2016-11-02T07:30:37.280Z,1011.23
2016-11-02T07:31:37.261Z,1011.17
2016-11-02T07:32:37.250Z,1011.15
2016-11-02T07:33:37.233Z,1011.18
2016-11-02T07:34:37.216Z,1011.08
2016-11-02T07:35:37.200Z,1011.09
2016-11-02T07:36:37.181Z,1011.05
2016-11-02T07:37:37.170Z,1011.07
2016-11-02T07:38:37.151Z,1011.02
2016-11-02T07:39:37.134Z,1010.99
2016-11-02T07:40:37.116Z,1011.05
2016-11-02T07:41:37.101Z,1011.04
2016-11-02T07:42:37.084Z,1010.98
2016-11-02T07:43:37.089Z,1011.07
2016-11-02T07:44:37.052Z,1011.08
2016-11-02T07:45:37.035Z,1011.05
2016-11-02T07:46:37.017Z,1011.07
2016-11-02T07:47:37.001Z,1011.06
2016-11-02T07:48:36.987Z,1011.05
2016-11-02T07:49:36.967Z,1011.08
2016-11-02T07:50:36.950Z,1011.06
2016-11-02T07:51:36.937Z,1011.08
2016-11-02T07:52:36.920Z,1011.08
2016-11-02T07:53:36.902Z,1011.1
2016-11-02T07:54:36.887Z,1011.11
2016-11-02T07:55:36.870Z,1011.13
2016-11-02T07:56:36.853Z,1011.13
2016-11-02T07:57:36.838Z,1011.12
2016-11-02T07:58:36.822Z,1011.13
2016-11-02T07:59:36.805Z,1011.09
2016-11-02T08:00:36.789Z,1011.09
2016-11-02T08:01:36.773Z,1011.11
2016-11-02T08:02:36.760Z,1011.07
2016-11-02T08:03:36.740Z,1011.07
2016-11-02T08:04:36.725Z,1011.05
2016-11-02T08:05:36.708Z,1011.06
2016-11-02T08:06:36.693Z,1011.09
2016-11-02T08:07:36.678Z,1011.07
2016-11-02T08:08:36.659Z,1011.07
2016-11-02T08:09:36.643Z,1011.1
2016-11-02T08:10:36.627Z,1011.11
2016-11-02T08:11:36.612Z,1011.08
2016-11-02T08:12:36.598Z,1011.18
2016-11-02T08:13:36.579Z,1011.2
2016-11-02T08:14:36.561Z,1011.18
2016-11-02T08:15:36.546Z,1011.13
2016-11-02T08:16:36.529Z,1011.15
2016-11-02T08:17:36.517Z,1011.11
2016-11-02T08:18:36.496Z,1011.13
2016-11-02T08:19:36.481Z,1011.15
2016-11-02T08:20:36.464Z,1011.16
2016-11-02T08:21:36.449Z,1011.12
2016-11-02T08:22:36.432Z,1011.17
2016-11-02T08:23:36.418Z,1011.13
2016-11-02T08:24:36.399Z,1011.12
2016-11-02T08:25:36.384Z,1011.1
2016-11-02T08:26:36.367Z,1011.11
2016-11-02T08:27:36.351Z,1011.11
2016-11-02T08:28:36.334Z,1011.1
2016-11-02T08:29:36.319Z,1011.07
2016-11-02T08:30:36.302Z,1011.12
2016-11-02T08:31:36.286Z,1011.13
2016-11-02T08:32:36.269Z,1011.15
2016-11-02T08:33:36.253Z,1011.18
2016-11-02T08:34:36.239Z,1011.14
2016-11-02T08:35:36.222Z,1011.19
2016-11-02T08:36:36.205Z,1011.2
2016-11-02T08:37:36.190Z,1011.21
2016-11-02T08:38:36.172Z,1011.17
2016-11-02T08:39:36.159Z,1011.21
2016-11-02T08:40:36.140Z,1011.22
2016-11-02T08:41:36.124Z,1011.19
2016-11-02T08:42:36.112Z,1011.2
2016-11-02T08:43:36.094Z,1011.18
2016-11-02T08:44:36.074Z,1011.22
2016-11-02T08:45:36.059Z,1011.21
2016-11-02T08:46:36.044Z,1011.23
2016-11-02T08:47:36.033Z,1011.19
2016-11-02T08:48:36.012Z,1011.21
2016-11-02T08:49:35.994Z,1011.2
2016-11-02T08:50:35.979Z,1011.21
2016-11-02T08:51:35.961Z,1011.21
2016-11-02T08:52:35.946Z,1011.18
2016-11-02T08:53:35.929Z,1011.16
2016-11-02T08:54:35.914Z,1011.22
2016-11-02T08:55:35.896Z,1011.18
2016-11-02T08:56:35.881Z,1011.15
2016-11-02T08:57:35.865Z,1011.19
2016-11-02T08:58:35.848Z,1011.16
2016-11-02T08:59:35.831Z,1011.11
2016-11-02T09:00:35.818Z,1011.17
2016-11-02T09:01:35.801Z,1011.15
2016-11-02T09:02:35.783Z,1011.12
2016-11-02T09:03:35.772Z,1011.16
2016-11-02T09:04:35.751Z,1011.13
2016-11-02T09:05:35.737Z,1011.15
2016-11-02T09:06:35.717Z,1011.17
2016-11-02T09:07:35.703Z,1011.12
2016-11-02T09:08:35.688Z,1011.22
2016-11-02T09:09:35.671Z,1011.18
2016-11-02T09:10:35.653Z,1011.17
2016-11-02T09:11:35.638Z,1011.18
2016-11-02T09:12:35.627Z,1011.15
2016-11-02T09:13:35.605Z,1011.21
2016-11-02T09:14:35.590Z,1011.18
2016-11-02T09:15:35.573Z,1011.17
2016-11-02T09:16:35.558Z,1011.22
2016-11-02T09:17:35.541Z,1011.22
2016-11-02T09:18:35.528Z,1011.17
2016-11-02T09:19:35.508Z,1011.15
2016-11-02T09:20:35.491Z,1011.19
2016-11-02T09:21:35.473Z,1011.14
2016-11-02T09:22:35.458Z,1011.13
2016-11-02T09:23:35.444Z,1011.17
2016-11-02T09:24:35.426Z,1011.2
2016-11-02T09:25:35.409Z,1011.16
2016-11-02T09:26:35.394Z,1011.12
2016-11-02T09:27:35.383Z,1011.15
2016-11-02T09:28:35.362Z,1011.13
2016-11-02T09:29:35.344Z,1011.12
2016-11-02T09:30:35.329Z,1011.19
2016-11-02T09:31:35.312Z,1011.13
2016-11-02T09:32:35.293Z,1011.1
2016-11-02T09:33:35.279Z,1011.1
2016-11-02T09:34:35.264Z,1011.07
2016-11-02T09:35:35.247Z,1011.11
2016-11-02T09:36:35.230Z,1011.14
2016-11-02T09:37:35.214Z,1011.1
2016-11-02T09:38:35.199Z,1011.07
2016-11-02T09:39:35.182Z,1011.07
2016-11-02T09:40:35.167Z,1011.07
2016-11-02T09:41:35.152Z,1011.09
2016-11-02T09:42:35.134Z,1011.1
2016-11-02T09:43:35.116Z,1011.07
2016-11-02T09:44:35.102Z,1011.01
2016-11-02T09:45:35.087Z,1011.07
2016-11-02T09:46:35.069Z,1011.15
2016-11-02T09:47:35.053Z,1011.14
2016-11-02T09:48:35.038Z,1011.1
2016-11-02T09:49:35.022Z,1011.04
2016-11-02T09:50:35.003Z,1011.09
2016-11-02T09:51:34.992Z,1011.11
2016-11-02T09:52:34.974Z,1011.12
2016-11-02T09:53:34.957Z,1011.13
2016-11-02T09:54:34.940Z,1011.15
2016-11-02T09:55:34.927Z,1011.11
2016-11-02T09:56:34.910Z,1011.12
2016-11-02T09:57:34.895Z,1011.09
2016-11-02T09:58:34.876Z,1011.14
2016-11-02T09:59:34.860Z,1011.17
2016-11-02T10:00:34.843Z,1011.16
2016-11-02T10:01:34.830Z,1011.13
2016-11-02T10:02:34.817Z,1011.15
2016-11-02T10:03:34.797Z,1011.16
2016-11-02T10:04:34.781Z,1011.1
2016-11-02T10:05:34.765Z,1011.12
2016-11-02T10:06:34.749Z,1011.15
2016-11-02T10:07:34.731Z,1011.23
2016-11-02T10:08:34.715Z,1011.1
2016-11-02T10:09:34.701Z,1011.07
2016-11-02T10:10:34.685Z,1011.1
2016-11-02T10:11:34.669Z,1011.13
2016-11-02T10:12:34.653Z,1011.09
2016-11-02T10:13:34.636Z,1011.14
2016-11-02T10:14:34.620Z,1011.08
2016-11-02T10:15:34.603Z,1011.1
2016-11-02T10:16:34.589Z,1011.09
2016-11-02T10:17:34.572Z,1011.07
2016-11-02T10:18:34.557Z,1011.03
2016-11-02T10:19:34.540Z,1011.05
2016-11-02T10:20:34.525Z,1011.01
2016-11-02T10:21:34.508Z,1011.03
2016-11-02T10:22:34.493Z,1011.04
2016-11-02T10:23:34.476Z,1011.02
2016-11-02T10:24:34.460Z,1011.05
2016-11-02T10:25:34.451Z,1011.05
2016-11-02T10:26:34.428Z,1011.05
2016-11-02T10:27:34.415Z,1011.06
2016-11-02T10:28:34.395Z,1010.96
2016-11-02T10:29:34.380Z,1011.04
2016-11-02T10:30:34.363Z,1011.05
2016-11-02T10:31:34.348Z,1011.04
2016-11-02T10:32:34.333Z,1011.02
2016-11-02T10:33:34.312Z,1011.05
2016-11-02T10:34:34.300Z,1011.04
2016-11-02T10:35:34.285Z,1011.06
2016-11-02T10:36:34.268Z,1011.11
2016-11-02T10:37:34.253Z,1011.05
2016-11-02T10:38:34.237Z,1011.08
2016-11-02T10:39:34.222Z,1011.06
2016-11-02T10:40:34.205Z,1011.03
2016-11-02T10:41:34.188Z,1011.02
2016-11-02T10:42:34.173Z,1010.96
2016-11-02T10:43:34.155Z,1011.08
2016-11-02T10:44:34.140Z,1010.93
2016-11-02T10:45:34.123Z,1010.95
2016-11-02T10:46:34.108Z,1010.97
2016-11-02T10:47:34.093Z,1010.98
2016-11-02T10:48:34.076Z,1011.1
2016-11-02T10:49:34.060Z,1010.91
2016-11-02T10:50:34.045Z,1010.9
2016-11-02T10:51:34.028Z,1011.05
2016-11-02T10:52:34.011Z,1010.95
2016-11-02T10:53:33.997Z,1010.89
2016-11-02T10:54:33.980Z,1010.94
2016-11-02T10:55:33.963Z,1010.93
2016-11-02T10:56:33.948Z,1010.95
2016-11-02T10:57:33.933Z,1010.93
2016-11-02T10:58:33.916Z,1010.96
2016-11-02T10:59:33.901Z,1010.88
2016-11-02T11:00:33.889Z,1010.91
2016-11-02T11:01:33.869Z,1010.85
2016-11-02T11:02:33.854Z,1010.87
2016-11-02T11:03:33.836Z,1010.87
2016-11-02T11:04:33.820Z,1010.86
2016-11-02T11:05:33.803Z,1010.77
2016-11-02T11:06:33.790Z,1010.86
2016-11-02T11:07:33.772Z,1010.79
2016-11-02T11:08:33.756Z,1010.87
2016-11-02T11:09:33.741Z,1010.85
2016-11-02T11:10:33.723Z,1010.82
2016-11-02T11:11:33.708Z,1010.79
2016-11-02T11:12:33.693Z,1010.74
2016-11-02T11:13:33.676Z,1010.75
2016-11-02T11:14:33.663Z,1010.72
2016-11-02T11:15:33.645Z,1010.71
2016-11-02T11:16:33.628Z,1010.69
2016-11-02T11:17:33.623Z,1010.71
2016-11-02T11:18:33.597Z,1010.68
2016-11-02T11:19:33.581Z,1010.68
2016-11-02T11:20:33.566Z,1010.59
2016-11-02T11:21:33.548Z,1010.6
2016-11-02T11:22:33.533Z,1010.61
2016-11-02T11:23:33.518Z,1010.58
2016-11-02T11:24:33.501Z,1010.62
2016-11-02T11:25:33.486Z,1010.61
2016-11-02T11:26:33.469Z,1010.6
2016-11-02T11:27:33.456Z,1010.56
2016-11-02T11:28:33.436Z,1010.58
2016-11-02T11:29:33.421Z,1010.57
2016-11-02T11:30:33.408Z,1010.6
2016-11-02T11:31:33.405Z,1010.54
2016-11-02T11:32:33.375Z,1010.55
2016-11-02T11:33:33.360Z,1010.55
2016-11-02T11:34:33.342Z,1010.55
2016-11-02T11:35:33.324Z,1010.56
2016-11-02T11:36:33.309Z,1010.49
2016-11-02T11:37:33.295Z,1010.47
2016-11-02T11:38:33.278Z,1010.46
2016-11-02T11:39:33.263Z,1010.45
2016-11-02T11:40:33.247Z,1010.49
2016-11-02T11:41:33.234Z,1010.5
2016-11-02T11:42:33.216Z,1010.53
2016-11-02T11:43:33.199Z,1010.47
2016-11-02T11:44:33.183Z,1010.5
2016-11-02T11:45:33.166Z,1010.46
2016-11-02T11:46:33.151Z,1010.53
2016-11-02T11:47:33.136Z,1010.52
2016-11-02T11:48:33.118Z,1010.48
2016-11-02T11:49:33.105Z,1010.48
2016-11-02T11:50:33.086Z,1010.47
2016-11-02T11:51:33.071Z,1010.45
2016-11-02T11:52:33.056Z,1010.47
2016-11-02T11:53:33.043Z,1010.48
2016-11-02T11:54:33.023Z,1010.4
2016-11-02T11:55:33.014Z,1010.5
2016-11-02T11:56:32.993Z,1010.49
2016-11-02T11:57:32.973Z,1010.46
2016-11-02T11:58:32.958Z,1010.45
2016-11-02T11:59:32.943Z,1010.47
2016-11-02T12:00:32.928Z,1010.45
2016-11-02T12:01:32.911Z,1010.45
2016-11-02T12:02:32.896Z,1010.46
2016-11-02T12:03:32.882Z,1010.41
2016-11-02T12:04:32.862Z,1010.4
2016-11-02T12:05:32.847Z,1010.36
2016-11-02T12:06:32.829Z,1010.37
2016-11-02T12:07:32.816Z,1010.4
2016-11-02T12:08:32.798Z,1010.41
2016-11-02T12:09:32.783Z,1010.38